createdAt,value
2018-01-15T00:00:59.657Z,2.40
2018-01-15T00:03:25.886Z,2.50
2018-01-15T00:05:52.808Z,2.50
2018-01-15T00:08:19.821Z,2.50
2018-01-15T00:10:46.465Z,2.50
2018-01-15T00:13:13.507Z,2.50
2018-01-15T00:15:39.795Z,2.50
2018-01-15T00:18:06.199Z,2.50
2018-01-15T00:20:33.558Z,2.60
2018-01-15T00:23:01.121Z,2.50
2018-01-15T00:25:29.386Z,2.60
2018-01-15T00:27:56.421Z,2.60
2018-01-15T00:30:22.627Z,2.50
2018-01-15T00:32:48.937Z,2.60
2018-01-15T00:35:15.770Z,2.60
2018-01-15T00:37:42.598Z,2.60
2018-01-15T00:40:09.366Z,2.60
2018-01-15T00:42:36.644Z,2.60
2018-01-15T00:45:03.145Z,2.60
2018-01-15T00:47:29.676Z,2.60
2018-01-15T00:49:57.066Z,2.60
2018-01-15T00:52:24.118Z,2.50
2018-01-15T00:54:51.025Z,2.50
2018-01-15T00:57:17.273Z,2.50
2018-01-15T00:59:44.023Z,2.50
2018-01-15T01:02:11.092Z,2.60
2018-01-15T01:04:39.089Z,2.50
2018-01-15T01:07:05.882Z,2.50
2018-01-15T01:09:33.201Z,2.50
2018-01-15T01:12:00.199Z,2.50
2018-01-15T01:14:27.196Z,2.50
2018-01-15T01:16:53.976Z,2.50
2018-01-15T01:19:21.479Z,2.40
2018-01-15T01:21:47.820Z,2.50
2018-01-15T01:24:14.680Z,2.40
2018-01-15T01:26:40.893Z,2.40
2018-01-15T01:29:07.506Z,2.40
2018-01-15T01:31:34.579Z,2.40
2018-01-15T01:34:01.066Z,2.30
2018-01-15T01:36:30.321Z,2.30
2018-01-15T01:38:57.261Z,2.30
2018-01-15T01:41:24.579Z,2.30
2018-01-15T01:43:51.825Z,2.20
2018-01-15T01:46:19.375Z,2.20
2018-01-15T01:48:58.022Z,2.30
2018-01-15T01:51:25.094Z,2.30
2018-01-15T01:53:51.883Z,2.30
2018-01-15T01:56:20.062Z,2.30
2018-01-15T01:58:47.006Z,2.30
2018-01-15T02:01:14.192Z,2.30
2018-01-15T02:03:41.864Z,2.30
2018-01-15T02:06:08.444Z,2.30
2018-01-15T02:08:35.685Z,2.40
2018-01-15T02:11:03.169Z,2.40
2018-01-15T02:13:30.243Z,2.40
2018-01-15T02:15:57.568Z,2.30
2018-01-15T02:18:24.687Z,2.40
2018-01-15T02:20:51.459Z,2.40
2018-01-15T02:23:17.727Z,2.40
2018-01-15T02:25:44.513Z,2.40
2018-01-15T02:28:10.902Z,2.40
2018-01-15T02:30:37.211Z,2.40
2018-01-15T02:33:04.823Z,2.40
2018-01-15T02:35:31.450Z,2.30
2018-01-15T02:37:57.805Z,2.30
2018-01-15T02:40:24.805Z,2.30
2018-01-15T02:45:25.035Z,2.30
2018-01-15T02:47:51.308Z,2.30
2018-01-15T02:50:18.914Z,2.20
2018-01-15T02:52:45.674Z,2.10
2018-01-15T02:55:12.555Z,2.20
2018-01-15T02:57:39.522Z,2.10
2018-01-15T03:00:06.516Z,2.10
2018-01-15T03:02:34.020Z,2.00
2018-01-15T03:05:00.368Z,2.00
2018-01-15T03:07:26.588Z,2.00
2018-01-15T03:09:52.958Z,2.00
2018-01-15T03:12:20.063Z,1.90
2018-01-15T03:14:46.300Z,1.90
2018-01-15T03:17:12.523Z,1.90
2018-01-15T03:19:39.747Z,1.90
2018-01-15T03:22:06.800Z,1.90
2018-01-15T03:24:33.906Z,1.80
2018-01-15T03:27:00.956Z,1.80
2018-01-15T03:29:27.707Z,1.80
2018-01-15T03:31:54.498Z,1.80
2018-01-15T03:34:20.726Z,1.80
2018-01-15T03:36:47.687Z,1.60
2018-01-15T03:39:15.937Z,1.50
2018-01-15T03:41:42.715Z,1.50
2018-01-15T03:44:08.942Z,1.70
2018-01-15T03:46:35.314Z,1.60
2018-01-15T03:49:01.606Z,1.60
2018-01-15T03:51:27.988Z,1.60
2018-01-15T03:53:55.054Z,1.70
2018-01-15T03:56:21.553Z,1.60
2018-01-15T03:58:49.208Z,1.50
2018-01-15T04:01:16.675Z,1.50
2018-01-15T04:03:43.392Z,1.50
2018-01-15T04:06:10.172Z,1.50
2018-01-15T04:08:37.233Z,1.40
2018-01-15T04:11:03.447Z,1.40
2018-01-15T04:13:29.712Z,1.50
2018-01-15T04:15:55.941Z,1.50
2018-01-15T04:18:22.169Z,1.40
2018-01-15T04:20:50.960Z,1.40
2018-01-15T04:23:17.752Z,1.50
2018-01-15T04:25:44.974Z,1.50
2018-01-15T04:28:12.140Z,1.50
2018-01-15T04:30:38.822Z,1.60
2018-01-15T04:33:05.270Z,1.70
2018-01-15T04:35:31.557Z,1.70
2018-01-15T04:37:58.514Z,1.60
2018-01-15T04:40:24.717Z,1.60
2018-01-15T04:42:50.918Z,1.60
2018-01-15T04:45:17.327Z,1.60
2018-01-15T04:47:44.069Z,1.70
2018-01-15T04:50:10.838Z,1.70
2018-01-15T04:52:37.631Z,1.70
2018-01-15T04:55:04.293Z,1.70
2018-01-15T04:57:30.664Z,1.70
2018-01-15T04:59:57.532Z,1.80
2018-01-15T05:02:23.852Z,1.80
2018-01-15T05:04:50.947Z,1.80
2018-01-15T05:07:18.630Z,1.80
2018-01-15T05:09:44.945Z,1.80
2018-01-15T05:12:12.478Z,1.80
2018-01-15T05:14:38.826Z,1.70
2018-01-15T05:17:05.051Z,1.80
2018-01-15T05:19:31.604Z,1.70
2018-01-15T05:21:58.906Z,1.70
2018-01-15T05:24:26.576Z,1.70
2018-01-15T05:26:52.832Z,1.70
2018-01-15T05:29:19.068Z,1.60
2018-01-15T05:31:46.301Z,1.30
2018-01-15T05:34:12.504Z,1.40
2018-01-15T05:36:38.952Z,1.40
2018-01-15T05:39:06.037Z,1.40
2018-01-15T05:41:32.352Z,1.40
2018-01-15T05:43:59.070Z,1.50
2018-01-15T05:46:25.575Z,1.50
2018-01-15T05:48:53.324Z,1.70
2018-01-15T05:51:19.754Z,1.70
2018-01-15T05:53:46.709Z,1.70
2018-01-15T05:56:14.197Z,1.80
2018-01-15T05:58:40.986Z,1.70
2018-01-15T06:01:08.535Z,1.70
2018-01-15T06:03:35.113Z,1.70
2018-01-15T06:06:02.640Z,1.80
2018-01-15T06:08:29.780Z,1.60
2018-01-15T06:10:56.114Z,1.60
2018-01-15T06:13:22.822Z,1.70
2018-01-15T06:15:50.456Z,1.70
2018-01-15T06:18:17.442Z,1.70
2018-01-15T06:20:45.076Z,1.70
2018-01-15T06:23:11.426Z,1.70
2018-01-15T06:25:37.646Z,1.60
2018-01-15T06:28:03.907Z,1.60
2018-01-15T06:30:30.479Z,1.50
2018-01-15T06:32:57.573Z,1.40
2018-01-15T06:35:23.805Z,1.40
2018-01-15T06:37:50.175Z,1.30
2018-01-15T06:40:17.501Z,1.40
2018-01-15T06:42:44.846Z,1.40
2018-01-15T06:45:11.074Z,1.40
2018-01-15T06:47:37.274Z,1.40
2018-01-15T06:50:03.542Z,1.50
2018-01-15T06:52:30.734Z,1.50
2018-01-15T06:54:58.639Z,1.60
2018-01-15T06:57:26.694Z,1.50
2018-01-15T06:59:53.604Z,1.50
2018-01-15T07:02:20.682Z,1.40
2018-01-15T07:04:46.941Z,1.40
2018-01-15T07:07:13.710Z,1.30
2018-01-15T07:09:47.180Z,1.20
2018-01-15T07:12:13.694Z,1.20
2018-01-15T07:14:40.729Z,1.20
2018-01-15T07:17:06.973Z,1.20
2018-01-15T07:19:34.060Z,1.30
2018-01-15T07:22:01.038Z,1.50
2018-01-15T07:24:27.244Z,1.40
2018-01-15T07:26:54.220Z,1.40
2018-01-15T07:29:21.486Z,1.30
2018-01-15T07:31:49.467Z,1.30
2018-01-15T07:34:16.078Z,1.30
2018-01-15T07:36:43.365Z,1.40
2018-01-15T07:39:09.645Z,1.40
2018-01-15T07:41:36.607Z,1.50
2018-01-15T07:44:03.840Z,1.50
2018-01-15T07:46:31.425Z,1.50
2018-01-15T07:48:57.826Z,1.50
2018-01-15T07:51:25.148Z,1.60
2018-01-15T07:53:53.233Z,1.60
2018-01-15T07:56:19.864Z,1.60
2018-01-15T07:58:46.869Z,1.60
2018-01-15T08:01:13.100Z,1.50
2018-01-15T08:03:40.000Z,1.60
2018-01-15T08:06:07.170Z,1.60
2018-01-15T08:08:34.769Z,1.70
2018-01-15T08:11:01.817Z,1.70
2018-01-15T08:13:28.315Z,1.60
2018-01-15T08:15:55.672Z,1.60
2018-01-15T08:18:23.214Z,1.50
2018-01-15T08:20:50.235Z,1.40
2018-01-15T08:23:17.476Z,1.40
2018-01-15T08:25:44.478Z,1.40
2018-01-15T08:28:10.744Z,1.30
2018-01-15T08:30:37.041Z,1.40
2018-01-15T08:33:03.257Z,1.50
2018-01-15T08:35:30.474Z,1.70
2018-01-15T08:37:58.166Z,1.60
2018-01-15T08:40:26.803Z,1.80
2018-01-15T08:42:53.052Z,1.80
2018-01-15T08:45:20.074Z,1.90
2018-01-15T08:47:46.299Z,1.90
2018-01-15T08:50:13.024Z,2.00
2018-01-15T08:52:40.054Z,1.90
2018-01-15T08:55:06.334Z,1.90
2018-01-15T08:57:33.197Z,2.00
2018-01-15T09:00:00.920Z,2.10
2018-01-15T09:02:27.728Z,2.10
2018-01-15T09:04:54.108Z,2.10
2018-01-15T09:07:21.014Z,2.20
2018-01-15T09:09:48.350Z,2.30
2018-01-15T09:12:15.873Z,2.40
2018-01-15T09:14:44.446Z,2.50
2018-01-15T09:17:11.646Z,2.40
2018-01-15T09:19:38.950Z,2.60
2018-01-15T09:22:05.922Z,2.70
2018-01-15T09:24:32.806Z,2.70
2018-01-15T09:26:59.034Z,2.80
2018-01-15T09:29:26.440Z,2.80
2018-01-15T09:31:52.680Z,3.10
2018-01-15T09:34:19.006Z,3.10
2018-01-15T09:36:45.478Z,3.10
2018-01-15T09:39:12.647Z,3.30
2018-01-15T09:41:41.106Z,3.40
2018-01-15T09:44:07.638Z,3.30
2018-01-15T09:46:34.693Z,2.90
2018-01-15T09:49:00.941Z,2.80
2018-01-15T09:51:27.381Z,2.90
2018-01-15T09:53:53.634Z,2.90
2018-01-15T09:56:21.540Z,3.20
2018-01-15T09:58:48.563Z,3.20
2018-01-15T10:01:14.808Z,3.20
2018-01-15T10:03:41.853Z,3.10
2018-01-15T10:06:08.367Z,3.00
2018-01-15T10:08:35.487Z,2.70
2018-01-15T10:11:02.346Z,2.60
2018-01-15T10:13:30.006Z,3.10
2018-01-15T10:15:57.714Z,3.20
2018-01-15T10:18:25.328Z,3.20
2018-01-15T10:20:52.577Z,3.30
2018-01-15T10:23:18.921Z,3.30
2018-01-15T10:25:46.142Z,3.70
2018-01-15T10:28:12.856Z,3.70
2018-01-15T10:30:39.891Z,3.60
2018-01-15T10:33:06.730Z,3.60
2018-01-15T10:35:33.099Z,3.70
2018-01-15T10:38:02.153Z,3.60
2018-01-15T10:40:29.014Z,3.60
2018-01-15T10:42:56.617Z,3.50
2018-01-15T10:45:23.711Z,3.40
2018-01-15T10:47:50.051Z,3.40
2018-01-15T10:50:16.304Z,3.50
2018-01-15T10:52:43.091Z,3.50
2018-01-15T10:55:09.892Z,3.50
2018-01-15T10:57:36.099Z,3.60
2018-01-15T11:00:02.890Z,3.40
2018-01-15T11:02:30.039Z,3.50
2018-01-15T11:04:56.275Z,3.50
2018-01-15T11:07:23.142Z,3.50
2018-01-15T11:09:50.637Z,3.50
2018-01-15T11:12:17.907Z,3.50
2018-01-15T11:14:45.314Z,3.50
2018-01-15T11:17:11.594Z,3.50
2018-01-15T11:19:38.560Z,3.30
2018-01-15T11:22:05.261Z,3.30
2018-01-15T11:24:32.449Z,3.20
2018-01-15T11:26:59.493Z,3.20
2018-01-15T11:29:26.189Z,3.20
2018-01-15T11:31:53.887Z,3.30
2018-01-15T11:34:20.963Z,3.20
2018-01-15T11:36:47.318Z,3.20
2018-01-15T11:39:13.630Z,3.30
2018-01-15T11:41:40.588Z,3.30
2018-01-15T11:44:07.447Z,3.20
2018-01-15T11:46:34.157Z,3.10
2018-01-15T11:49:01.081Z,3.20
2018-01-15T11:51:28.391Z,3.50
2018-01-15T11:53:55.403Z,3.00
2018-01-15T11:56:21.871Z,3.00
2018-01-15T11:58:48.858Z,3.20
2018-01-15T12:01:15.720Z,3.20
2018-01-15T12:03:42.586Z,3.10
2018-01-15T12:06:08.977Z,3.10
2018-01-15T12:08:35.197Z,2.90
2018-01-15T12:11:01.847Z,3.20
2018-01-15T12:13:29.487Z,3.40
2018-01-15T12:15:55.850Z,3.40
2018-01-15T12:18:22.658Z,3.50
2018-01-15T12:20:49.809Z,3.20
2018-01-15T12:23:16.152Z,3.20
2018-01-15T12:25:42.689Z,3.20
2018-01-15T12:28:10.312Z,3.40
2018-01-15T12:30:37.688Z,3.30
2018-01-15T12:33:04.228Z,3.30
2018-01-15T12:35:30.460Z,3.30
2018-01-15T12:37:57.559Z,3.40
2018-01-15T12:40:24.233Z,3.50
2018-01-15T12:42:51.295Z,3.60
2018-01-15T12:45:17.623Z,3.60
2018-01-15T12:47:44.187Z,3.50
2018-01-15T12:50:11.547Z,3.30
2018-01-15T12:52:39.097Z,3.40
2018-01-15T12:55:06.812Z,3.40
2018-01-15T12:57:34.580Z,3.60
2018-01-15T13:00:01.576Z,3.60
2018-01-15T13:02:27.797Z,3.60
2018-01-15T13:04:54.140Z,3.60
2018-01-15T13:07:33.524Z,3.50
2018-01-15T13:10:00.602Z,3.50
2018-01-15T13:12:26.833Z,3.60
2018-01-15T13:14:53.624Z,3.50
2018-01-15T13:17:20.005Z,3.60
2018-01-15T13:19:46.450Z,3.60
2018-01-15T13:22:12.688Z,3.60
2018-01-15T13:24:38.998Z,3.60
2018-01-15T13:27:05.956Z,3.60
2018-01-15T13:29:32.990Z,3.60
2018-01-15T13:31:59.290Z,3.60
2018-01-15T13:34:26.141Z,3.60
2018-01-15T13:36:52.674Z,3.60
2018-01-15T13:39:20.329Z,3.40
2018-01-15T13:41:47.813Z,3.40
2018-01-15T13:44:15.128Z,3.30
2018-01-15T13:46:42.187Z,3.10
2018-01-15T13:49:09.968Z,3.10
2018-01-15T13:51:36.285Z,2.90
2018-01-15T13:54:02.827Z,2.80
2018-01-15T13:56:29.640Z,3.10
2018-01-15T13:58:57.200Z,3.40
2018-01-15T14:01:24.274Z,3.70
2018-01-15T14:03:51.545Z,3.70
2018-01-15T14:06:18.705Z,4.20
2018-01-15T14:08:45.597Z,4.10
2018-01-15T14:11:12.788Z,4.20
2018-01-15T14:13:40.216Z,4.50
2018-01-15T14:16:06.792Z,4.50
2018-01-15T14:18:33.565Z,4.80
2018-01-15T14:21:01.068Z,4.80
2018-01-15T14:23:27.454Z,4.80
2018-01-15T14:25:54.721Z,4.90
2018-01-15T14:28:21.804Z,4.90
2018-01-15T14:30:48.437Z,4.90
2018-01-15T14:33:15.584Z,4.40
2018-01-15T14:35:41.813Z,4.40
2018-01-15T14:38:08.198Z,4.20
2018-01-15T14:40:34.424Z,4.30
2018-01-15T14:43:01.792Z,4.30
2018-01-15T14:45:28.039Z,4.10
2018-01-15T14:47:54.629Z,4.10
2018-01-15T14:50:21.110Z,4.00
2018-01-15T14:52:48.420Z,3.80
2018-01-15T14:55:16.444Z,3.80
2018-01-15T14:57:42.724Z,3.80
2018-01-15T15:00:09.132Z,3.90
2018-01-15T15:02:35.923Z,3.70
2018-01-15T15:05:02.308Z,3.50
2018-01-15T15:07:28.756Z,3.30
2018-01-15T15:09:55.133Z,3.30
2018-01-15T15:12:21.370Z,3.20
2018-01-15T15:14:47.652Z,3.10
2018-01-15T15:17:14.417Z,3.00
2018-01-15T15:19:41.468Z,2.90
2018-01-15T15:22:08.958Z,2.90
2018-01-15T15:24:36.794Z,2.90
2018-01-15T15:27:03.234Z,2.90
2018-01-15T15:29:29.770Z,2.90
2018-01-15T15:31:56.820Z,2.70
2018-01-15T15:34:23.313Z,2.70
2018-01-15T15:36:50.291Z,2.70
2018-01-15T15:39:16.529Z,2.70
2018-01-15T15:41:43.387Z,2.50
2018-01-15T15:44:09.617Z,2.60
2018-01-15T15:46:36.211Z,2.60
2018-01-15T15:49:03.887Z,2.50
2018-01-15T15:51:30.707Z,2.50
2018-01-15T15:53:58.033Z,2.40
2018-01-15T15:56:26.218Z,2.40
2018-01-15T15:58:52.511Z,2.40
2018-01-15T16:01:19.266Z,2.50
2018-01-15T16:03:46.526Z,2.50
2018-01-15T16:06:13.711Z,2.40
2018-01-15T16:08:40.829Z,2.30
2018-01-15T16:11:08.042Z,2.30
2018-01-15T16:13:34.416Z,2.20
2018-01-15T16:16:00.688Z,2.00
2018-01-15T16:18:27.570Z,2.10
2018-01-15T16:20:54.809Z,2.00
2018-01-15T16:23:21.039Z,2.10
2018-01-15T16:25:47.274Z,2.10
2018-01-15T16:28:13.998Z,2.10
2018-01-15T16:30:40.258Z,2.10
2018-01-15T16:33:06.526Z,2.10
2018-01-15T16:35:33.454Z,2.10
2018-01-15T16:38:00.427Z,2.10
2018-01-15T16:40:27.120Z,2.10
2018-01-15T16:42:55.906Z,2.10
2018-01-15T16:45:22.580Z,2.10
2018-01-15T16:47:49.427Z,2.10
2018-01-15T16:50:22.919Z,2.00
2018-01-15T16:52:50.134Z,2.10
2018-01-15T16:55:16.416Z,2.00
2018-01-15T16:57:42.755Z,2.00
2018-01-15T17:00:09.182Z,2.00
2018-01-15T17:02:36.026Z,1.90
2018-01-15T17:05:02.533Z,1.90
2018-01-15T17:07:29.613Z,1.90
2018-01-15T17:09:55.850Z,1.90
2018-01-15T17:12:22.364Z,2.00
2018-01-15T17:14:48.603Z,1.80
2018-01-15T17:17:15.423Z,1.80
2018-01-15T17:19:42.377Z,1.80
2018-01-15T17:22:09.015Z,1.80
2018-01-15T17:24:35.265Z,1.80
2018-01-15T17:27:01.572Z,1.80
2018-01-15T17:29:27.925Z,1.80
2018-01-15T17:31:54.181Z,1.80
2018-01-15T17:34:20.900Z,1.90
2018-01-15T17:36:47.211Z,1.90
2018-01-15T17:39:14.655Z,1.90
2018-01-15T17:41:40.983Z,1.90
2018-01-15T17:44:07.867Z,1.80
2018-01-15T17:46:34.117Z,1.80
2018-01-15T17:49:00.406Z,1.80
2018-01-15T17:51:27.354Z,1.80
2018-01-15T17:53:54.288Z,1.90
2018-01-15T17:56:20.566Z,1.70
2018-01-15T17:58:46.971Z,1.70
2018-01-15T18:01:13.487Z,1.80
2018-01-15T18:03:39.899Z,1.90
2018-01-15T18:06:06.951Z,1.90
2018-01-15T18:08:33.370Z,1.90
2018-01-15T18:11:01.479Z,2.00
2018-01-15T18:13:27.763Z,2.00
2018-01-15T18:15:54.751Z,2.00
2018-01-15T18:18:21.575Z,2.00
2018-01-15T18:20:47.863Z,2.10
2018-01-15T18:23:15.082Z,2.20
2018-01-15T18:25:41.387Z,2.20
2018-01-15T18:28:08.128Z,2.10
2018-01-15T18:30:35.759Z,2.20
2018-01-15T18:33:02.768Z,2.20
2018-01-15T18:35:29.673Z,2.10
2018-01-15T18:37:56.513Z,2.10
2018-01-15T18:40:22.931Z,2.10
2018-01-15T18:42:49.979Z,2.20
2018-01-15T18:45:17.023Z,2.20
2018-01-15T18:47:44.073Z,2.30
2018-01-15T18:50:11.644Z,2.30
2018-01-15T18:52:38.175Z,2.30
2018-01-15T18:55:05.171Z,2.20
2018-01-15T18:57:31.573Z,2.20
2018-01-15T18:59:58.618Z,2.50
2018-01-15T19:02:24.902Z,2.50
2018-01-15T19:04:51.540Z,2.40
2018-01-15T19:07:19.213Z,2.50
2018-01-15T19:09:46.532Z,2.50
2018-01-15T19:12:13.295Z,2.60
2018-01-15T19:14:39.869Z,2.60
2018-01-15T19:17:07.122Z,2.60
2018-01-15T19:19:34.287Z,2.70
2018-01-15T19:22:00.524Z,2.70
2018-01-15T19:24:27.264Z,2.60
2018-01-15T19:26:54.544Z,2.50
2018-01-15T19:29:20.826Z,2.50
2018-01-15T19:31:47.177Z,2.50
2018-01-15T19:34:13.457Z,2.60
2018-01-15T19:36:45.754Z,2.70
2018-01-15T19:39:13.133Z,2.70
2018-01-15T19:41:40.624Z,2.60
2018-01-15T19:44:14.400Z,2.60
2018-01-15T19:46:47.435Z,2.60
2018-01-15T19:49:21.002Z,2.70
2018-01-15T19:51:53.779Z,2.60
2018-01-15T19:54:27.219Z,2.90
2018-01-15T19:56:59.833Z,2.90
2018-01-15T19:59:32.826Z,3.00
2018-01-15T20:02:15.495Z,3.10
2018-01-15T20:04:48.184Z,3.20
2018-01-15T20:07:21.497Z,3.10
2018-01-15T20:09:57.042Z,2.90
2018-01-15T20:12:25.107Z,2.80
2018-01-15T20:14:51.745Z,3.00
2018-01-15T20:17:19.640Z,2.80
2018-01-15T20:19:46.790Z,2.80
2018-01-15T20:22:15.377Z,2.80
2018-01-15T20:24:43.914Z,2.70
2018-01-15T20:27:10.409Z,2.70
2018-01-15T20:29:36.976Z,2.80
2018-01-15T20:32:03.534Z,2.80
2018-01-15T20:34:29.923Z,2.80
2018-01-15T20:36:57.216Z,2.90
2018-01-15T20:39:23.858Z,2.90
2018-01-15T20:41:51.304Z,2.80
2018-01-15T20:44:18.514Z,2.90
2018-01-15T20:46:45.916Z,2.90
2018-01-15T20:49:12.352Z,2.90
2018-01-15T20:51:39.634Z,3.00
2018-01-15T20:54:05.980Z,3.10
2018-01-15T20:56:32.339Z,3.10
2018-01-15T20:58:59.471Z,3.20
2018-01-15T21:01:26.618Z,3.10
2018-01-15T21:03:53.511Z,3.10
2018-01-15T21:06:20.765Z,3.20
2018-01-15T21:08:47.793Z,3.10
2018-01-15T21:11:14.310Z,3.10
2018-01-15T21:13:41.411Z,3.00
2018-01-15T21:16:08.995Z,3.00
2018-01-15T21:18:36.507Z,3.00
2018-01-15T21:21:03.237Z,3.00
2018-01-15T21:23:31.364Z,3.00
2018-01-15T21:25:58.373Z,3.00
2018-01-15T21:28:25.499Z,3.10
2018-01-15T21:30:51.867Z,3.10
2018-01-15T21:33:18.709Z,3.10
2018-01-15T21:35:45.479Z,3.00
2018-01-15T21:38:12.152Z,3.10
2018-01-15T21:40:39.213Z,2.70
2018-01-15T21:43:06.039Z,2.70
2018-01-15T21:45:32.331Z,2.70
2018-01-15T21:47:58.813Z,2.60
2018-01-15T21:50:26.711Z,2.40
2018-01-15T21:52:53.699Z,2.30
2018-01-15T21:55:21.208Z,2.30
2018-01-15T21:57:47.896Z,2.30
2018-01-15T22:00:15.071Z,2.20
2018-01-15T22:02:41.266Z,2.30
2018-01-15T22:05:08.760Z,2.10
2018-01-15T22:07:35.158Z,2.10
2018-01-15T22:10:02.119Z,2.10
2018-01-15T22:12:28.810Z,2.10
2018-01-15T22:14:56.881Z,2.10
2018-01-15T22:17:23.380Z,2.10
2018-01-15T22:19:49.992Z,2.20
2018-01-15T22:22:16.742Z,2.10
2018-01-15T22:24:42.951Z,2.00
2018-01-15T22:27:10.055Z,1.90
2018-01-15T22:29:36.463Z,1.80
2018-01-15T22:32:03.634Z,1.80
2018-01-15T22:34:31.255Z,1.80
2018-01-15T22:36:57.570Z,1.80
2018-01-15T22:39:25.512Z,1.80
2018-01-15T22:41:51.720Z,1.70
2018-01-15T22:44:18.569Z,1.70
2018-01-15T22:46:44.794Z,1.60
2018-01-15T22:49:11.339Z,1.70
2018-01-15T22:51:38.412Z,1.70
2018-01-15T22:54:05.516Z,1.80
2018-01-15T22:56:32.530Z,1.80
2018-01-15T22:58:58.851Z,1.80
2018-01-15T23:01:25.830Z,1.80
2018-01-15T23:03:52.563Z,1.70
2018-01-15T23:06:18.775Z,1.60
2018-01-15T23:08:45.517Z,1.50
2018-01-15T23:11:12.231Z,1.50
2018-01-15T23:13:39.600Z,1.50
2018-01-15T23:16:06.675Z,1.40
2018-01-15T23:18:32.892Z,1.40
2018-01-15T23:20:59.115Z,1.40
2018-01-15T23:23:25.488Z,1.50
2018-01-15T23:25:53.486Z,1.60
2018-01-15T23:28:20.421Z,1.70
2018-01-15T23:30:53.659Z,1.70
2018-01-15T23:33:21.285Z,1.70
2018-01-15T23:35:47.557Z,1.70
2018-01-15T23:38:13.745Z,1.70
2018-01-15T23:40:40.824Z,1.70
2018-01-15T23:43:07.551Z,1.70
2018-01-15T23:45:33.789Z,1.60
2018-01-15T23:47:59.985Z,1.50
2018-01-15T23:50:27.178Z,1.60
2018-01-15T23:52:54.634Z,1.70
2018-01-15T23:55:21.696Z,1.70
2018-01-15T23:57:48.008Z,1.70
